sensor_id;sensor_type;location;lat;lon;timestamp;temperature;humidity
64012;DHT22;50211;52.768;12.124;2023-07-24T00:00:30;18.20;99.90
64012;DHT22;50211;52.768;12.124;2023-07-24T00:02:55;18.20;99.90
64012;DHT22;50211;52.768;12.124;2023-07-24T00:05:21;18.20;99.90
64012;DHT22;50211;52.768;12.124;2023-07-24T00:07:47;18.30;99.90
64012;DHT22;50211;52.768;12.124;2023-07-24T00:10:12;18.30;99.90
64012;DHT22;50211;52.768;12.124;2023-07-24T00:12:38;18.30;99.90
64012;DHT22;50211;52.768;12.124;2023-07-24T00:15:04;18.40;99.90
64012;DHT22;50211;52.768;12.124;2023-07-24T00:17:29;18.40;99.90
64012;DHT22;50211;52.768;12.124;2023-07-24T00:19:55;18.40;99.90
64012;DHT22;50211;52.768;12.124;2023-07-24T00:22:20;18.40;99.90
64012;DHT22;50211;52.768;12.124;2023-07-24T00:24:46;18.40;99.90
64012;DHT22;50211;52.768;12.124;2023-07-24T00:27:11;18.40;99.90
64012;DHT22;50211;52.768;12.124;2023-07-24T00:29:37;18.40;99.90
64012;DHT22;50211;52.768;12.124;2023-07-24T00:32:03;18.40;99.90
64012;DHT22;50211;52.768;12.124;2023-07-24T00:34:28;18.40;99.90
64012;DHT22;50211;52.768;12.124;2023-07-24T00:36:53;18.30;99.90
64012;DHT22;50211;52.768;12.124;2023-07-24T00:39:19;18.40;99.90
64012;DHT22;50211;52.768;12.124;2023-07-24T00:41:44;18.40;99.90
64012;DHT22;50211;52.768;12.124;2023-07-24T00:44:10;18.40;99.90
64012;DHT22;50211;52.768;12.124;2023-07-24T00:46:35;18.40;99.90
64012;DHT22;50211;52.768;12.124;2023-07-24T00:49:02;18.40;99.90
64012;DHT22;50211;52.768;12.124;2023-07-24T00:51:30;18.40;99.90
64012;DHT22;50211;52.768;12.124;2023-07-24T00:53:57;18.40;99.90
64012;DHT22;50211;52.768;12.124;2023-07-24T00:56:23;18.40;99.90
64012;DHT22;50211;52.768;12.124;2023-07-24T00:58:49;18.40;99.90
64012;DHT22;50211;52.768;12.124;2023-07-24T01:01:16;18.40;99.90
64012;DHT22;50211;52.768;12.124;2023-07-24T01:03:42;18.30;99.90
64012;DHT22;50211;52.768;12.124;2023-07-24T01:06:09;18.30;99.90
64012;DHT22;50211;52.768;12.124;2023-07-24T01:08:34;18.30;99.90
64012;DHT22;50211;52.768;12.124;2023-07-24T01:11:05;18.30;99.90
64012;DHT22;50211;52.768;12.124;2023-07-24T01:13:37;18.30;99.90
64012;DHT22;50211;52.768;12.124;2023-07-24T01:16:09;18.30;99.90
64012;DHT22;50211;52.768;12.124;2023-07-24T01:18:38;18.30;99.90
64012;DHT22;50211;52.768;12.124;2023-07-24T01:21:05;18.30;99.90
64012;DHT22;50211;52.768;12.124;2023-07-24T01:23:44;18.30;99.90
64012;DHT22;50211;52.768;12.124;2023-07-24T01:26:12;18.40;99.90
64012;DHT22;50211;52.768;12.124;2023-07-24T01:28:38;18.40;99.90
64012;DHT22;50211;52.768;12.124;2023-07-24T01:31:05;18.40;99.90
64012;DHT22;50211;52.768;12.124;2023-07-24T01:33:30;18.40;99.90
64012;DHT22;50211;52.768;12.124;2023-07-24T01:35:59;18.40;99.90
64012;DHT22;50211;52.768;12.124;2023-07-24T01:38:26;18.40;99.90
64012;DHT22;50211;52.768;12.124;2023-07-24T01:40:53;18.40;99.90
64012;DHT22;50211;52.768;12.124;2023-07-24T01:43:19;18.30;99.90
64012;DHT22;50211;52.768;12.124;2023-07-24T01:45:45;18.30;99.90
64012;DHT22;50211;52.768;12.124;2023-07-24T01:48:10;18.30;99.90
64012;DHT22;50211;52.768;12.124;2023-07-24T01:50:36;18.40;99.90
64012;DHT22;50211;52.768;12.124;2023-07-24T01:53:01;18.40;99.90
64012;DHT22;50211;52.768;12.124;2023-07-24T01:55:27;18.40;99.90
64012;DHT22;50211;52.768;12.124;2023-07-24T01:57:52;18.40;99.90
64012;DHT22;50211;52.768;12.124;2023-07-24T02:00:18;18.40;99.90
64012;DHT22;50211;52.768;12.124;2023-07-24T02:02:43;18.50;99.90
64012;DHT22;50211;52.768;12.124;2023-07-24T02:05:09;18.50;99.90
64012;DHT22;50211;52.768;12.124;2023-07-24T02:07:34;18.50;99.90
64012;DHT22;50211;52.768;12.124;2023-07-24T02:10:00;18.50;99.90
64012;DHT22;50211;52.768;12.124;2023-07-24T02:12:25;18.50;99.90
64012;DHT22;50211;52.768;12.124;2023-07-24T02:14:51;18.50;99.90
64012;DHT22;50211;52.768;12.124;2023-07-24T02:17:18;18.50;99.90
64012;DHT22;50211;52.768;12.124;2023-07-24T02:19:44;18.50;99.90
64012;DHT22;50211;52.768;12.124;2023-07-24T02:22:10;18.50;99.90
64012;DHT22;50211;52.768;12.124;2023-07-24T02:24:35;18.50;99.90
64012;DHT22;50211;52.768;12.124;2023-07-24T02:27:01;18.50;99.90
64012;DHT22;50211;52.768;12.124;2023-07-24T02:29:27;18.60;99.90
64012;DHT22;50211;52.768;12.124;2023-07-24T02:31:54;18.50;99.90
64012;DHT22;50211;52.768;12.124;2023-07-24T02:34:20;18.50;99.90
64012;DHT22;50211;52.768;12.124;2023-07-24T02:36:49;18.60;99.90
64012;DHT22;50211;52.768;12.124;2023-07-24T02:39:15;18.60;99.90
64012;DHT22;50211;52.768;12.124;2023-07-24T02:41:40;18.60;99.90
64012;DHT22;50211;52.768;12.124;2023-07-24T02:44:06;18.60;99.90
64012;DHT22;50211;52.768;12.124;2023-07-24T02:46:31;18.70;99.90
64012;DHT22;50211;52.768;12.124;2023-07-24T02:48:57;18.70;99.90
64012;DHT22;50211;52.768;12.124;2023-07-24T02:51:22;18.70;99.90
64012;DHT22;50211;52.768;12.124;2023-07-24T02:53:48;18.70;99.90
64012;DHT22;50211;52.768;12.124;2023-07-24T02:56:13;18.70;99.90
64012;DHT22;50211;52.768;12.124;2023-07-24T02:58:39;18.70;99.90
64012;DHT22;50211;52.768;12.124;2023-07-24T03:01:07;18.70;99.90
64012;DHT22;50211;52.768;12.124;2023-07-24T03:03:33;18.70;99.90
64012;DHT22;50211;52.768;12.124;2023-07-24T03:05:59;18.70;99.90
64012;DHT22;50211;52.768;12.124;2023-07-24T03:08:25;18.70;99.90
64012;DHT22;50211;52.768;12.124;2023-07-24T03:10:50;18.80;99.90
64012;DHT22;50211;52.768;12.124;2023-07-24T03:13:16;18.80;99.90
64012;DHT22;50211;52.768;12.124;2023-07-24T03:15:41;18.80;99.90
64012;DHT22;50211;52.768;12.124;2023-07-24T03:18:07;18.80;99.90
64012;DHT22;50211;52.768;12.124;2023-07-24T03:20:32;18.80;99.90
64012;DHT22;50211;52.768;12.124;2023-07-24T03:22:58;18.80;99.90
64012;DHT22;50211;52.768;12.124;2023-07-24T03:25:23;18.80;99.90
64012;DHT22;50211;52.768;12.124;2023-07-24T03:27:49;18.80;99.90
64012;DHT22;50211;52.768;12.124;2023-07-24T03:30:14;18.70;99.90
64012;DHT22;50211;52.768;12.124;2023-07-24T03:32:40;18.70;99.90
64012;DHT22;50211;52.768;12.124;2023-07-24T03:35:06;18.70;99.90
64012;DHT22;50211;52.768;12.124;2023-07-24T03:37:34;18.70;99.90
64012;DHT22;50211;52.768;12.124;2023-07-24T03:40:01;18.60;99.90
64012;DHT22;50211;52.768;12.124;2023-07-24T03:42:27;18.50;99.90
64012;DHT22;50211;52.768;12.124;2023-07-24T03:44:53;18.50;99.90
64012;DHT22;50211;52.768;12.124;2023-07-24T03:47:19;18.50;99.90
64012;DHT22;50211;52.768;12.124;2023-07-24T03:49:44;18.50;99.90
64012;DHT22;50211;52.768;12.124;2023-07-24T03:52:10;18.40;99.90
64012;DHT22;50211;52.768;12.124;2023-07-24T03:54:35;18.40;99.90
64012;DHT22;50211;52.768;12.124;2023-07-24T03:57:00;18.40;99.90
64012;DHT22;50211;52.768;12.124;2023-07-24T03:59:26;18.40;99.90
64012;DHT22;50211;52.768;12.124;2023-07-24T04:01:51;18.40;99.90
64012;DHT22;50211;52.768;12.124;2023-07-24T04:04:17;18.40;99.90
64012;DHT22;50211;52.768;12.124;2023-07-24T04:06:42;18.40;99.90
64012;DHT22;50211;52.768;12.124;2023-07-24T04:09:08;18.40;99.90
64012;DHT22;50211;52.768;12.124;2023-07-24T04:11:33;18.50;99.90
64012;DHT22;50211;52.768;12.124;2023-07-24T04:13:59;18.50;99.90
64012;DHT22;50211;52.768;12.124;2023-07-24T04:16:24;18.60;99.90
64012;DHT22;50211;52.768;12.124;2023-07-24T04:18:50;18.70;99.90
64012;DHT22;50211;52.768;12.124;2023-07-24T04:21:15;18.80;99.90
64012;DHT22;50211;52.768;12.124;2023-07-24T04:23:41;18.80;99.90
64012;DHT22;50211;52.768;12.124;2023-07-24T04:26:06;18.80;99.90
64012;DHT22;50211;52.768;12.124;2023-07-24T04:28:32;18.80;99.90
64012;DHT22;50211;52.768;12.124;2023-07-24T04:31:00;18.80;99.90
64012;DHT22;50211;52.768;12.124;2023-07-24T04:33:27;18.80;99.90
64012;DHT22;50211;52.768;12.124;2023-07-24T04:35:54;18.90;99.90
64012;DHT22;50211;52.768;12.124;2023-07-24T04:38:19;18.90;99.90
64012;DHT22;50211;52.768;12.124;2023-07-24T04:40:45;18.90;99.90
64012;DHT22;50211;52.768;12.124;2023-07-24T04:43:11;18.90;99.90
64012;DHT22;50211;52.768;12.124;2023-07-24T04:45:36;19.00;99.90
64012;DHT22;50211;52.768;12.124;2023-07-24T04:48:02;19.00;99.90
64012;DHT22;50211;52.768;12.124;2023-07-24T04:50:27;19.00;99.90
64012;DHT22;50211;52.768;12.124;2023-07-24T04:52:53;19.00;99.90
64012;DHT22;50211;52.768;12.124;2023-07-24T04:55:18;19.00;99.90
64012;DHT22;50211;52.768;12.124;2023-07-24T04:57:44;19.10;99.90
64012;DHT22;50211;52.768;12.124;2023-07-24T05:00:09;19.10;99.90
64012;DHT22;50211;52.768;12.124;2023-07-24T05:02:35;19.10;99.90
64012;DHT22;50211;52.768;12.124;2023-07-24T05:05:01;19.20;99.90
64012;DHT22;50211;52.768;12.124;2023-07-24T05:07:26;19.20;99.90
64012;DHT22;50211;52.768;12.124;2023-07-24T05:09:52;19.30;99.90
64012;DHT22;50211;52.768;12.124;2023-07-24T05:12:17;19.30;99.90
64012;DHT22;50211;52.768;12.124;2023-07-24T05:14:42;19.40;99.90
64012;DHT22;50211;52.768;12.124;2023-07-24T05:17:08;19.50;99.90
64012;DHT22;50211;52.768;12.124;2023-07-24T05:19:33;19.50;99.90
64012;DHT22;50211;52.768;12.124;2023-07-24T05:21:59;19.60;99.90
64012;DHT22;50211;52.768;12.124;2023-07-24T05:24:24;19.70;99.90
64012;DHT22;50211;52.768;12.124;2023-07-24T05:26:50;19.70;99.90
64012;DHT22;50211;52.768;12.124;2023-07-24T05:29:15;19.80;99.90
64012;DHT22;50211;52.768;12.124;2023-07-24T05:31:41;19.90;99.90
64012;DHT22;50211;52.768;12.124;2023-07-24T05:34:07;19.90;99.90
64012;DHT22;50211;52.768;12.124;2023-07-24T05:36:32;19.90;99.90
64012;DHT22;50211;52.768;12.124;2023-07-24T05:38:58;20.00;99.90
64012;DHT22;50211;52.768;12.124;2023-07-24T05:41:23;20.00;99.90
64012;DHT22;50211;52.768;12.124;2023-07-24T05:43:49;20.10;99.90
64012;DHT22;50211;52.768;12.124;2023-07-24T05:46:15;20.10;99.90
64012;DHT22;50211;52.768;12.124;2023-07-24T05:48:41;20.10;99.90
64012;DHT22;50211;52.768;12.124;2023-07-24T05:51:06;20.20;99.90
64012;DHT22;50211;52.768;12.124;2023-07-24T05:53:32;20.30;99.90
64012;DHT22;50211;52.768;12.124;2023-07-24T05:55:58;20.40;99.90
64012;DHT22;50211;52.768;12.124;2023-07-24T05:58:25;20.50;99.90
64012;DHT22;50211;52.768;12.124;2023-07-24T06:00:50;20.60;99.90
64012;DHT22;50211;52.768;12.124;2023-07-24T06:03:16;20.60;99.90
64012;DHT22;50211;52.768;12.124;2023-07-24T06:05:41;20.70;99.90
64012;DHT22;50211;52.768;12.124;2023-07-24T06:08:07;20.60;99.90
64012;DHT22;50211;52.768;12.124;2023-07-24T06:10:34;20.70;99.90
64012;DHT22;50211;52.768;12.124;2023-07-24T06:12:59;20.80;99.90
64012;DHT22;50211;52.768;12.124;2023-07-24T06:15:25;20.90;99.90
64012;DHT22;50211;52.768;12.124;2023-07-24T06:17:50;20.90;99.90
64012;DHT22;50211;52.768;12.124;2023-07-24T06:20:16;21.10;99.90
64012;DHT22;50211;52.768;12.124;2023-07-24T06:22:41;21.20;99.90
64012;DHT22;50211;52.768;12.124;2023-07-24T06:25:07;21.20;99.90
64012;DHT22;50211;52.768;12.124;2023-07-24T06:27:33;21.30;99.90
64012;DHT22;50211;52.768;12.124;2023-07-24T06:29:58;21.50;99.90
64012;DHT22;50211;52.768;12.124;2023-07-24T06:32:24;21.60;99.90
64012;DHT22;50211;52.768;12.124;2023-07-24T06:34:49;21.80;99.90
64012;DHT22;50211;52.768;12.124;2023-07-24T06:37:15;21.80;99.90
64012;DHT22;50211;52.768;12.124;2023-07-24T06:39:40;21.90;99.90
64012;DHT22;50211;52.768;12.124;2023-07-24T06:42:06;22.00;99.90
64012;DHT22;50211;52.768;12.124;2023-07-24T06:44:31;21.90;99.90
64012;DHT22;50211;52.768;12.124;2023-07-24T06:46:56;21.80;99.90
64012;DHT22;50211;52.768;12.124;2023-07-24T06:49:22;21.60;99.90
64012;DHT22;50211;52.768;12.124;2023-07-24T06:51:47;21.60;99.90
64012;DHT22;50211;52.768;12.124;2023-07-24T06:54:13;21.80;99.90
64012;DHT22;50211;52.768;12.124;2023-07-24T06:56:38;22.10;99.90
64012;DHT22;50211;52.768;12.124;2023-07-24T06:59:04;22.10;99.90
64012;DHT22;50211;52.768;12.124;2023-07-24T07:01:29;22.20;99.90
64012;DHT22;50211;52.768;12.124;2023-07-24T07:03:55;22.40;99.90
64012;DHT22;50211;52.768;12.124;2023-07-24T07:06:20;22.50;99.90
64012;DHT22;50211;52.768;12.124;2023-07-24T07:08:46;22.70;99.90
64012;DHT22;50211;52.768;12.124;2023-07-24T07:11:11;23.00;99.90
64012;DHT22;50211;52.768;12.124;2023-07-24T07:13:37;23.30;99.90
64012;DHT22;50211;52.768;12.124;2023-07-24T07:16:02;23.30;99.90
64012;DHT22;50211;52.768;12.124;2023-07-24T07:18:28;23.40;99.90
64012;DHT22;50211;52.768;12.124;2023-07-24T07:20:54;23.30;99.90
64012;DHT22;50211;52.768;12.124;2023-07-24T07:23:20;23.20;99.90
64012;DHT22;50211;52.768;12.124;2023-07-24T07:25:46;23.30;99.90
64012;DHT22;50211;52.768;12.124;2023-07-24T07:28:12;23.40;99.90
64012;DHT22;50211;52.768;12.124;2023-07-24T07:30:38;23.50;99.90
64012;DHT22;50211;52.768;12.124;2023-07-24T07:33:04;23.60;99.90
64012;DHT22;50211;52.768;12.124;2023-07-24T07:35:31;23.80;99.90
64012;DHT22;50211;52.768;12.124;2023-07-24T07:37:57;23.70;99.90
64012;DHT22;50211;52.768;12.124;2023-07-24T07:40:23;23.40;99.90
64012;DHT22;50211;52.768;12.124;2023-07-24T07:42:49;23.40;99.90
64012;DHT22;50211;52.768;12.124;2023-07-24T07:45:14;23.30;99.90
64012;DHT22;50211;52.768;12.124;2023-07-24T07:47:40;23.10;99.90
64012;DHT22;50211;52.768;12.124;2023-07-24T07:50:05;23.00;99.90
64012;DHT22;50211;52.768;12.124;2023-07-24T07:52:31;23.10;99.90
64012;DHT22;50211;52.768;12.124;2023-07-24T07:54:57;23.30;99.90
64012;DHT22;50211;52.768;12.124;2023-07-24T07:57:22;23.50;99.90
64012;DHT22;50211;52.768;12.124;2023-07-24T07:59:48;23.60;99.90
64012;DHT22;50211;52.768;12.124;2023-07-24T08:02:13;23.50;99.90
64012;DHT22;50211;52.768;12.124;2023-07-24T08:04:39;23.30;99.90
64012;DHT22;50211;52.768;12.124;2023-07-24T08:07:04;23.30;99.90
64012;DHT22;50211;52.768;12.124;2023-07-24T08:09:30;23.20;99.90
64012;DHT22;50211;52.768;12.124;2023-07-24T08:11:55;22.90;99.90
64012;DHT22;50211;52.768;12.124;2023-07-24T08:14:21;22.90;99.90
64012;DHT22;50211;52.768;12.124;2023-07-24T08:16:50;23.00;99.90
64012;DHT22;50211;52.768;12.124;2023-07-24T08:19:15;23.30;99.90
64012;DHT22;50211;52.768;12.124;2023-07-24T08:21:41;23.90;99.90
64012;DHT22;50211;52.768;12.124;2023-07-24T08:24:07;24.10;99.90
64012;DHT22;50211;52.768;12.124;2023-07-24T08:26:32;24.00;99.90
64012;DHT22;50211;52.768;12.124;2023-07-24T08:28:58;23.80;99.90
64012;DHT22;50211;52.768;12.124;2023-07-24T08:31:23;23.50;99.90
64012;DHT22;50211;52.768;12.124;2023-07-24T08:33:49;23.50;99.90
64012;DHT22;50211;52.768;12.124;2023-07-24T08:36:15;23.70;99.90
64012;DHT22;50211;52.768;12.124;2023-07-24T08:38:40;24.00;99.90
64012;DHT22;50211;52.768;12.124;2023-07-24T08:41:10;24.00;99.90
64012;DHT22;50211;52.768;12.124;2023-07-24T08:43:36;23.90;99.90
64012;DHT22;50211;52.768;12.124;2023-07-24T08:46:03;23.80;99.90
64012;DHT22;50211;52.768;12.124;2023-07-24T08:48:30;23.70;99.90
64012;DHT22;50211;52.768;12.124;2023-07-24T08:50:57;23.70;99.90
64012;DHT22;50211;52.768;12.124;2023-07-24T08:53:24;23.90;99.90
64012;DHT22;50211;52.768;12.124;2023-07-24T08:55:51;23.90;99.90
64012;DHT22;50211;52.768;12.124;2023-07-24T08:58:17;24.30;99.90
64012;DHT22;50211;52.768;12.124;2023-07-24T09:00:43;24.70;99.90
64012;DHT22;50211;52.768;12.124;2023-07-24T09:03:09;25.20;99.90
64012;DHT22;50211;52.768;12.124;2023-07-24T09:05:34;25.60;99.90
64012;DHT22;50211;52.768;12.124;2023-07-24T09:08:00;25.60;99.90
64012;DHT22;50211;52.768;12.124;2023-07-24T09:10:26;26.10;99.90
64012;DHT22;50211;52.768;12.124;2023-07-24T09:12:52;26.40;99.90
64012;DHT22;50211;52.768;12.124;2023-07-24T09:15:17;26.80;99.90
64012;DHT22;50211;52.768;12.124;2023-07-24T09:17:53;26.60;99.90
64012;DHT22;50211;52.768;12.124;2023-07-24T09:20:19;26.30;99.90
64012;DHT22;50211;52.768;12.124;2023-07-24T09:22:50;26.00;99.90
64012;DHT22;50211;52.768;12.124;2023-07-24T09:25:15;26.30;99.90
64012;DHT22;50211;52.768;12.124;2023-07-24T09:27:41;26.70;99.90
64012;DHT22;50211;52.768;12.124;2023-07-24T09:30:14;27.00;99.90
64012;DHT22;50211;52.768;12.124;2023-07-24T09:32:40;26.90;99.90
64012;DHT22;50211;52.768;12.124;2023-07-24T09:35:16;27.60;99.90
64012;DHT22;50211;52.768;12.124;2023-07-24T09:37:43;27.30;99.90
64012;DHT22;50211;52.768;12.124;2023-07-24T09:40:10;27.00;99.90
64012;DHT22;50211;52.768;12.124;2023-07-24T09:42:37;27.10;99.90
64012;DHT22;50211;52.768;12.124;2023-07-24T09:45:03;27.40;99.90
64012;DHT22;50211;52.768;12.124;2023-07-24T09:47:32;27.70;99.90
64012;DHT22;50211;52.768;12.124;2023-07-24T09:49:59;27.20;99.90
64012;DHT22;50211;52.768;12.124;2023-07-24T09:52:27;27.00;99.90
64012;DHT22;50211;52.768;12.124;2023-07-24T09:55:06;26.60;99.90
64012;DHT22;50211;52.768;12.124;2023-07-24T09:57:34;26.20;99.90
64012;DHT22;50211;52.768;12.124;2023-07-24T10:00:00;26.00;99.90
64012;DHT22;50211;52.768;12.124;2023-07-24T10:02:28;26.10;99.90
64012;DHT22;50211;52.768;12.124;2023-07-24T10:04:54;26.00;99.90
64012;DHT22;50211;52.768;12.124;2023-07-24T10:07:20;25.80;99.90
64012;DHT22;50211;52.768;12.124;2023-07-24T10:09:49;25.50;99.90
64012;DHT22;50211;52.768;12.124;2023-07-24T10:12:17;25.20;99.90
64012;DHT22;50211;52.768;12.124;2023-07-24T10:14:44;25.20;99.90
64012;DHT22;50211;52.768;12.124;2023-07-24T10:17:10;25.00;99.90
64012;DHT22;50211;52.768;12.124;2023-07-24T10:19:39;24.90;99.90
64012;DHT22;50211;52.768;12.124;2023-07-24T10:22:05;24.90;99.90
64012;DHT22;50211;52.768;12.124;2023-07-24T10:24:33;24.70;99.90
64012;DHT22;50211;52.768;12.124;2023-07-24T10:26:58;24.60;99.90
64012;DHT22;50211;52.768;12.124;2023-07-24T10:29:24;24.60;99.90
64012;DHT22;50211;52.768;12.124;2023-07-24T10:31:54;24.60;99.90
64012;DHT22;50211;52.768;12.124;2023-07-24T10:34:20;23.80;99.90
64012;DHT22;50211;52.768;12.124;2023-07-24T10:36:46;22.80;99.90
64012;DHT22;50211;52.768;12.124;2023-07-24T10:39:16;21.70;99.90
64012;DHT22;50211;52.768;12.124;2023-07-24T10:41:43;20.60;99.90
64012;DHT22;50211;52.768;12.124;2023-07-24T10:44:10;20.00;99.90
64012;DHT22;50211;52.768;12.124;2023-07-24T10:46:40;19.50;99.90
64012;DHT22;50211;52.768;12.124;2023-07-24T10:49:07;19.40;99.90
64012;DHT22;50211;52.768;12.124;2023-07-24T10:51:33;19.20;99.90
64012;DHT22;50211;52.768;12.124;2023-07-24T10:54:01;19.00;99.90
64012;DHT22;50211;52.768;12.124;2023-07-24T10:56:27;18.80;99.90
64012;DHT22;50211;52.768;12.124;2023-07-24T10:58:52;18.80;99.90
64012;DHT22;50211;52.768;12.124;2023-07-24T11:01:18;18.80;99.90
64012;DHT22;50211;52.768;12.124;2023-07-24T11:03:44;18.90;99.90
64012;DHT22;50211;52.768;12.124;2023-07-24T11:06:15;19.10;99.90
64012;DHT22;50211;52.768;12.124;2023-07-24T11:08:40;19.50;99.90
64012;DHT22;50211;52.768;12.124;2023-07-24T11:11:07;20.10;99.90
64012;DHT22;50211;52.768;12.124;2023-07-24T11:13:33;20.70;99.90
64012;DHT22;50211;52.768;12.124;2023-07-24T11:16:05;21.00;99.90
64012;DHT22;50211;52.768;12.124;2023-07-24T11:18:30;21.10;99.90
64012;DHT22;50211;52.768;12.124;2023-07-24T11:20:56;21.30;99.90
64012;DHT22;50211;52.768;12.124;2023-07-24T11:23:23;21.20;99.90
64012;DHT22;50211;52.768;12.124;2023-07-24T11:25:53;21.20;99.90
64012;DHT22;50211;52.768;12.124;2023-07-24T11:28:19;21.10;99.90
64012;DHT22;50211;52.768;12.124;2023-07-24T11:30:44;21.00;99.90
64012;DHT22;50211;52.768;12.124;2023-07-24T11:33:12;21.40;99.90
64012;DHT22;50211;52.768;12.124;2023-07-24T11:35:39;22.20;99.90
64012;DHT22;50211;52.768;12.124;2023-07-24T11:38:09;22.70;99.90
64012;DHT22;50211;52.768;12.124;2023-07-24T11:40:39;23.30;99.90
64012;DHT22;50211;52.768;12.124;2023-07-24T11:43:14;23.50;99.90
64012;DHT22;50211;52.768;12.124;2023-07-24T11:45:44;23.50;99.90
64012;DHT22;50211;52.768;12.124;2023-07-24T11:48:11;24.20;99.90
64012;DHT22;50211;52.768;12.124;2023-07-24T11:50:56;24.40;99.90
64012;DHT22;50211;52.768;12.124;2023-07-24T11:55:50;23.40;99.90
64012;DHT22;50211;52.768;12.124;2023-07-24T11:58:16;23.30;99.90
64012;DHT22;50211;52.768;12.124;2023-07-24T12:00:42;23.20;99.90
64012;DHT22;50211;52.768;12.124;2023-07-24T12:03:08;23.30;99.90
64012;DHT22;50211;52.768;12.124;2023-07-24T12:05:40;23.70;99.90
64012;DHT22;50211;52.768;12.124;2023-07-24T12:08:07;24.30;99.90
64012;DHT22;50211;52.768;12.124;2023-07-24T12:10:38;24.90;99.90
64012;DHT22;50211;52.768;12.124;2023-07-24T12:13:05;25.30;99.90
64012;DHT22;50211;52.768;12.124;2023-07-24T12:15:30;25.50;99.90
64012;DHT22;50211;52.768;12.124;2023-07-24T12:17:56;25.80;99.90
64012;DHT22;50211;52.768;12.124;2023-07-24T12:20:22;25.50;99.90
64012;DHT22;50211;52.768;12.124;2023-07-24T12:22:48;25.80;99.90
64012;DHT22;50211;52.768;12.124;2023-07-24T12:25:13;26.00;99.90
64012;DHT22;50211;52.768;12.124;2023-07-24T12:27:40;26.30;99.90
64012;DHT22;50211;52.768;12.124;2023-07-24T12:30:07;26.60;99.90
64012;DHT22;50211;52.768;12.124;2023-07-24T12:32:33;27.00;99.90
64012;DHT22;50211;52.768;12.124;2023-07-24T12:34:59;27.50;99.90
64012;DHT22;50211;52.768;12.124;2023-07-24T12:37:24;27.80;99.90
64012;DHT22;50211;52.768;12.124;2023-07-24T12:39:50;27.90;99.90
64012;DHT22;50211;52.768;12.124;2023-07-24T12:42:15;27.70;99.90
64012;DHT22;50211;52.768;12.124;2023-07-24T12:44:42;27.90;99.90
64012;DHT22;50211;52.768;12.124;2023-07-24T12:47:08;27.40;99.90
64012;DHT22;50211;52.768;12.124;2023-07-24T12:49:33;27.40;99.90
64012;DHT22;50211;52.768;12.124;2023-07-24T12:52:00;26.90;99.90
64012;DHT22;50211;52.768;12.124;2023-07-24T12:54:26;27.10;99.90
64012;DHT22;50211;52.768;12.124;2023-07-24T12:56:51;27.30;99.90
64012;DHT22;50211;52.768;12.124;2023-07-24T12:59:17;27.20;99.90
64012;DHT22;50211;52.768;12.124;2023-07-24T13:01:43;26.90;99.90
64012;DHT22;50211;52.768;12.124;2023-07-24T13:04:09;27.00;99.90
64012;DHT22;50211;52.768;12.124;2023-07-24T13:06:34;27.10;99.90
64012;DHT22;50211;52.768;12.124;2023-07-24T13:09:00;27.20;99.90
64012;DHT22;50211;52.768;12.124;2023-07-24T13:11:26;27.50;99.90
64012;DHT22;50211;52.768;12.124;2023-07-24T13:13:53;28.10;99.90
64012;DHT22;50211;52.768;12.124;2023-07-24T13:16:19;28.10;99.90
64012;DHT22;50211;52.768;12.124;2023-07-24T13:18:45;28.10;99.90
64012;DHT22;50211;52.768;12.124;2023-07-24T13:21:10;28.10;99.90
64012;DHT22;50211;52.768;12.124;2023-07-24T13:23:36;27.90;99.90
64012;DHT22;50211;52.768;12.124;2023-07-24T13:26:01;27.80;99.90
64012;DHT22;50211;52.768;12.124;2023-07-24T13:28:27;28.10;99.90
64012;DHT22;50211;52.768;12.124;2023-07-24T13:30:53;28.40;99.90
64012;DHT22;50211;52.768;12.124;2023-07-24T13:33:18;28.50;99.90
64012;DHT22;50211;52.768;12.124;2023-07-24T13:35:44;28.60;99.90
64012;DHT22;50211;52.768;12.124;2023-07-24T13:38:10;28.50;99.90
64012;DHT22;50211;52.768;12.124;2023-07-24T13:40:36;28.30;99.90
64012;DHT22;50211;52.768;12.124;2023-07-24T13:43:02;28.70;99.90
64012;DHT22;50211;52.768;12.124;2023-07-24T13:45:29;29.00;99.90
64012;DHT22;50211;52.768;12.124;2023-07-24T13:47:56;28.80;99.90
64012;DHT22;50211;52.768;12.124;2023-07-24T13:50:22;28.30;99.90
64012;DHT22;50211;52.768;12.124;2023-07-24T13:52:47;28.20;99.90
64012;DHT22;50211;52.768;12.124;2023-07-24T13:55:13;27.90;99.90
64012;DHT22;50211;52.768;12.124;2023-07-24T13:57:39;27.50;99.90
64012;DHT22;50211;52.768;12.124;2023-07-24T14:00:05;27.30;99.90
64012;DHT22;50211;52.768;12.124;2023-07-24T14:02:31;27.30;99.90
64012;DHT22;50211;52.768;12.124;2023-07-24T14:04:56;27.50;99.90
64012;DHT22;50211;52.768;12.124;2023-07-24T14:07:22;27.50;99.90
64012;DHT22;50211;52.768;12.124;2023-07-24T14:09:47;27.50;99.90
64012;DHT22;50211;52.768;12.124;2023-07-24T14:12:13;27.00;99.90
64012;DHT22;50211;52.768;12.124;2023-07-24T14:14:39;26.70;99.90
64012;DHT22;50211;52.768;12.124;2023-07-24T14:17:04;26.60;99.90
64012;DHT22;50211;52.768;12.124;2023-07-24T14:19:30;26.30;99.90
64012;DHT22;50211;52.768;12.124;2023-07-24T14:21:55;26.20;99.90
64012;DHT22;50211;52.768;12.124;2023-07-24T14:24:21;25.90;99.90
64012;DHT22;50211;52.768;12.124;2023-07-24T14:26:46;25.10;99.90
64012;DHT22;50211;52.768;12.124;2023-07-24T14:29:12;23.40;99.90
64012;DHT22;50211;52.768;12.124;2023-07-24T14:31:37;22.80;99.90
64012;DHT22;50211;52.768;12.124;2023-07-24T14:34:03;22.20;99.90
64012;DHT22;50211;52.768;12.124;2023-07-24T14:36:29;21.60;99.90
64012;DHT22;50211;52.768;12.124;2023-07-24T14:38:59;21.20;99.90
64012;DHT22;50211;52.768;12.124;2023-07-24T14:41:26;21.00;99.90
64012;DHT22;50211;52.768;12.124;2023-07-24T14:43:51;20.90;99.90
64012;DHT22;50211;52.768;12.124;2023-07-24T14:46:17;21.10;99.90
64012;DHT22;50211;52.768;12.124;2023-07-24T14:48:42;21.30;99.90
64012;DHT22;50211;52.768;12.124;2023-07-24T14:51:08;21.50;99.90
64012;DHT22;50211;52.768;12.124;2023-07-24T14:53:33;21.80;99.90
64012;DHT22;50211;52.768;12.124;2023-07-24T14:55:59;21.70;99.90
64012;DHT22;50211;52.768;12.124;2023-07-24T14:58:24;21.60;99.90
64012;DHT22;50211;52.768;12.124;2023-07-24T15:00:50;21.60;99.90
64012;DHT22;50211;52.768;12.124;2023-07-24T15:03:15;21.50;99.90
64012;DHT22;50211;52.768;12.124;2023-07-24T15:05:40;21.50;99.90
64012;DHT22;50211;52.768;12.124;2023-07-24T15:08:06;21.40;99.90
64012;DHT22;50211;52.768;12.124;2023-07-24T15:10:31;21.50;99.90